Time;durP1;ratioP1;P1;durP2;ratioP2;P2;SDS_P1;SDS_P2;PMS_P1;PMS_P2;Temp;Humidity;BMP_temperature;BMP_pressure;BME280_temperature;BME280_humidity;BME280_pressure;Samples;Min_cycle;Max_cycle;Signal;HPM_P1;HPM_P2
2022/12/16 00:01:21;;;;;;;;;;;;;;;-13.62;83.98;100629.13;4992921;28;19968;-74
2022/12/16 00:03:48;;;;;;;;;;;;;;;-13.64;85.10;100628.31;4993066;28;19914;-75
2022/12/16 00:06:13;;;;;;;;;;;;;;;-13.68;84.43;100632.69;5000173;28;19915;-74
2022/12/16 00:08:39;;;;;;;;;;;;;;;-13.52;85.54;100629.75;5001202;28;20286;-76
2022/12/16 00:11:05;;;;;;;;;;;;;;;-13.49;85.01;100627.09;4998191;28;19949;-74
2022/12/16 00:13:31;;;;;;;;;;;;;;;-13.55;84.68;100633.25;4991627;28;19983;-75
2022/12/16 00:15:57;;;;;;;;;;;;;;;-13.49;85.70;100635.69;4993911;28;19928;-74
2022/12/16 00:18:22;;;;;;;;;;;;;;;-13.37;86.00;100631.09;4993716;28;20286;-74
2022/12/16 00:20:50;;;;;;;;;;;;;;;-13.31;86.09;100639.56;4992314;28;19918;-74
2022/12/16 00:23:15;;;;;;;;;;;;;;;-13.40;85.17;100639.78;4993047;28;19922;-74
2022/12/16 00:25:42;;;;;;;;;;;;;;;-13.46;85.28;100648.53;5001150;28;19913;-74
2022/12/16 00:28:07;;;;;;;;;;;;;;;-13.48;85.52;100650.31;5010024;28;20267;-74
2022/12/16 00:30:32;;;;;;;;;;;;;;;-13.51;85.77;100644.34;5006100;28;19927;-74
2022/12/16 00:32:58;;;;;;;;;;;;;;;-13.58;85.51;100642.81;4977443;28;19918;-74
2022/12/16 00:35:23;;;;;;;;;;;;;;;-13.67;84.84;100641.28;5007608;28;20008;-75
2022/12/16 00:37:48;;;;;;;;;;;;;;;-13.69;84.97;100637.88;4999388;28;21770;-73
2022/12/16 00:40:13;;;;;;;;;;;;;;;-13.61;86.01;100646.31;4991805;28;19921;-74
2022/12/16 00:42:39;;;;;;;;;;;;;;;-13.69;85.61;100646.47;4988679;28;19943;-74
2022/12/16 00:45:04;;;;;;;;;;;;;;;-13.65;85.97;100653.28;5001233;28;19914;-74
2022/12/16 00:47:29;;;;;;;;;;;;;;;-13.77;85.24;100655.28;5002794;28;20365;-74
2022/12/16 00:49:55;;;;;;;;;;;;;;;-13.90;84.92;100650.41;4999757;28;19913;-74
2022/12/16 00:52:20;;;;;;;;;;;;;;;-13.95;84.24;100656.53;4994942;28;19918;-73
2022/12/16 00:54:45;;;;;;;;;;;;;;;-13.97;85.01;100663.47;4996597;28;19921;-74
2022/12/16 00:57:10;;;;;;;;;;;;;;;-14.00;84.67;100663.53;5011657;28;19940;-74
2022/12/16 00:59:36;;;;;;;;;;;;;;;-14.07;83.91;100661.09;5010328;28;19921;-74
2022/12/16 01:02:02;;;;;;;;;;;;;;;-14.05;84.41;100664.50;4991592;28;19925;-73
2022/12/16 01:04:27;;;;;;;;;;;;;;;-13.93;85.22;100658.19;5011143;28;19917;-75
2022/12/16 01:06:53;;;;;;;;;;;;;;;-13.76;85.35;100664.72;5012906;28;20005;-74
2022/12/16 01:09:18;;;;;;;;;;;;;;;-13.66;85.36;100659.31;5011622;28;19940;-75
2022/12/16 01:11:44;;;;;;;;;;;;;;;-13.58;85.47;100663.47;5012580;28;19939;-73
2022/12/16 01:14:09;;;;;;;;;;;;;;;-13.58;85.78;100655.72;5012492;28;19925;-76
2022/12/16 01:16:34;;;;;;;;;;;;;;;-13.56;85.70;100656.53;5010219;28;20303;-75
2022/12/16 01:19:00;;;;;;;;;;;;;;;-13.58;84.90;100663.47;4995314;28;19914;-74
2022/12/16 01:21:25;;;;;;;;;;;;;;;-13.58;84.94;100660.88;4984450;28;19918;-75
2022/12/16 01:23:51;;;;;;;;;;;;;;;-13.58;84.88;100659.13;4973832;28;20353;-75
2022/12/16 01:26:16;;;;;;;;;;;;;;;-13.64;84.13;100667.03;4974054;28;19966;-75
2022/12/16 01:28:42;;;;;;;;;;;;;;;-13.64;84.42;100667.03;4994130;28;20421;-75
2022/12/16 01:31:09;;;;;;;;;;;;;;;-13.61;84.66;100664.41;4992725;28;19918;-75
2022/12/16 01:33:34;;;;;;;;;;;;;;;-13.63;84.65;100671.31;4993297;28;19968;-75
2022/12/16 01:36:01;;;;;;;;;;;;;;;-13.69;84.19;100664.53;4994097;28;19918;-75
2022/12/16 01:38:26;;;;;;;;;;;;;;;-13.78;84.22;100666.50;4992515;28;19914;-75
2022/12/16 01:40:51;;;;;;;;;;;;;;;-13.87;83.04;100657.22;4993903;28;20289;-75
2022/12/16 01:43:18;;;;;;;;;;;;;;;-13.94;83.51;100655.69;4994151;28;19967;-76
2022/12/16 01:45:43;;;;;;;;;;;;;;;-13.96;83.68;100662.63;4977022;28;20517;-76
2022/12/16 01:48:17;;;;;;;;;;;;;;;-13.97;83.94;100661.75;4992824;28;19913;-76
2022/12/16 01:50:47;;;;;;;;;;;;;;;-13.99;83.29;100657.50;5006128;28;19917;-76
2022/12/16 01:53:13;;;;;;;;;;;;;;;-13.95;84.50;100653.97;5013604;28;19920;-75
2022/12/16 01:55:44;;;;;;;;;;;;;;;-13.86;84.86;100654.59;5012373;28;19922;-75
2022/12/16 01:58:24;;;;;;;;;;;;;;;-14.00;83.97;100656.66;5012571;28;19924;-76
2022/12/16 02:00:50;;;;;;;;;;;;;;;-13.98;84.67;100661.75;5000280;28;20370;-75
2022/12/16 02:03:15;;;;;;;;;;;;;;;-14.06;84.39;100669.69;4957632;28;19925;-75
2022/12/16 02:05:41;;;;;;;;;;;;;;;-14.09;83.98;100672.34;4975390;28;19914;-75
2022/12/16 02:08:11;;;;;;;;;;;;;;;-14.14;83.74;100666.44;4999889;28;19968;-75
2022/12/16 02:10:43;;;;;;;;;;;;;;;-14.12;84.13;100668.06;5017016;28;20016;-76
2022/12/16 02:13:26;;;;;;;;;;;;;;;-14.08;83.62;100667.13;5016008;28;20428;-76
2022/12/16 02:16:01;;;;;;;;;;;;;;;-14.11;83.12;100666.34;5018190;28;19921;-76
2022/12/16 02:18:35;;;;;;;;;;;;;;;-14.15;83.53;100668.16;5019875;28;19979;-76
2022/12/16 02:21:00;;;;;;;;;;;;;;;-14.22;83.74;100662.28;5015937;28;19936;-75
2022/12/16 02:23:28;;;;;;;;;;;;;;;-14.23;84.11;100660.56;5004328;28;20378;-76
2022/12/16 02:26:14;;;;;;;;;;;;;;;-14.12;84.55;100657.75;4997728;28;19914;-75
2022/12/16 02:29:00;;;;;;;;;;;;;;;-14.01;83.95;100665.28;4997048;28;19913;-75
2022/12/16 02:31:25;;;;;;;;;;;;;;;-13.97;84.19;100663.47;4993263;28;19914;-76
2022/12/16 02:33:57;;;;;;;;;;;;;;;-14.03;84.14;100673.03;4979938;28;19920;-76
2022/12/16 02:36:41;;;;;;;;;;;;;;;-14.13;83.12;100671.56;4995666;28;19918;-75
2022/12/16 02:39:09;;;;;;;;;;;;;;;-14.11;83.79;100671.50;5007131;28;19917;-76
2022/12/16 02:41:42;;;;;;;;;;;;;;;-14.20;83.53;100669.97;5015607;28;19936;-75
2022/12/16 02:44:09;;;;;;;;;;;;;;;-14.14;84.46;100672.44;5016582;28;19913;-76
2022/12/16 02:46:54;;;;;;;;;;;;;;;-14.06;85.15;100667.97;5004181;28;19914;-75
2022/12/16 02:49:19;;;;;;;;;;;;;;;-14.00;85.12;100672.16;4995813;28;19918;-75
2022/12/16 02:51:44;;;;;;;;;;;;;;;-13.96;84.53;100681.50;5014768;28;20283;-76
2022/12/16 02:54:10;;;;;;;;;;;;;;;-14.00;84.36;100677.31;5014449;28;19914;-76
2022/12/16 02:56:48;;;;;;;;;;;;;;;-14.05;84.01;100681.72;4999963;28;19984;-76
2022/12/16 02:59:13;;;;;;;;;;;;;;;-14.06;83.76;100685.16;4995503;28;19914;-76
2022/12/16 03:01:45;;;;;;;;;;;;;;;-14.08;83.80;100686.94;4996299;28;19925;-76
2022/12/16 03:04:18;;;;;;;;;;;;;;;-14.08;83.69;100685.19;4996417;28;19944;-75
2022/12/16 03:06:46;;;;;;;;;;;;;;;-14.09;84.19;100686.09;4995150;28;19922;-75
2022/12/16 03:09:12;;;;;;;;;;;;;;;-14.11;83.93;100693.00;4996298;28;19936;-75
2022/12/16 03:11:40;;;;;;;;;;;;;;;-14.15;83.26;100698.25;5009010;28;20377;-75
2022/12/16 03:14:09;;;;;;;;;;;;;;;-14.18;83.89;100694.00;5013670;28;19914;-75
2022/12/16 03:16:34;;;;;;;;;;;;;;;-14.18;84.70;100690.59;4997069;28;19928;-75
2022/12/16 03:19:05;;;;;;;;;;;;;;;-14.22;84.27;100692.38;5002130;28;19925;-75
2022/12/16 03:21:36;;;;;;;;;;;;;;;-14.31;83.47;100690.84;4995039;28;20001;-76
2022/12/16 03:24:02;;;;;;;;;;;;;;;-14.35;83.74;100696.09;4996235;28;19913;-75
2022/12/16 03:26:39;;;;;;;;;;;;;;;-14.31;83.90;100701.16;4996161;28;19918;-75
2022/12/16 03:29:10;;;;;;;;;;;;;;;-14.31;84.49;100698.56;4996163;28;20018;-75
2022/12/16 03:31:45;;;;;;;;;;;;;;;-14.30;84.55;100702.88;4994647;28;19914;-75
2022/12/16 03:34:29;;;;;;;;;;;;;;;-14.28;84.05;100707.97;4993559;28;19924;-75
2022/12/16 03:36:58;;;;;;;;;;;;;;;-14.26;84.32;100704.50;4995800;28;19914;-74
2022/12/16 03:39:25;;;;;;;;;;;;;;;-14.26;84.65;100709.66;4995812;28;19922;-75
2022/12/16 03:41:53;;;;;;;;;;;;;;;-14.19;84.93;100706.94;4991728;28;20362;-75
2022/12/16 03:44:20;;;;;;;;;;;;;;;-14.13;84.74;100714.53;4978933;28;19930;-76
2022/12/16 03:46:47;;;;;;;;;;;;;;;-14.17;84.73;100720.66;4994401;28;19936;-76
2022/12/16 03:49:12;;;;;;;;;;;;;;;-14.15;84.82;100717.19;4997080;28;20359;-76
2022/12/16 03:51:38;;;;;;;;;;;;;;;-14.19;84.21;100712.94;5013807;28;19917;-76
2022/12/16 03:54:03;;;;;;;;;;;;;;;-14.23;84.35;100707.00;5011244;28;19929;-76
2022/12/16 03:56:28;;;;;;;;;;;;;;;-14.24;84.24;100712.19;4994432;28;19924;-76
2022/12/16 03:58:54;;;;;;;;;;;;;;;-14.27;83.66;100715.69;4994017;28;20334;-76
2022/12/16 04:01:19;;;;;;;;;;;;;;;-14.29;84.00;100714.03;4994011;28;19983;-76
2022/12/16 04:03:44;;;;;;;;;;;;;;;-14.27;83.99;100705.34;5013462;28;20309;-76
2022/12/16 04:06:09;;;;;;;;;;;;;;;-14.15;84.68;100716.31;5014942;28;20016;-75
2022/12/16 04:08:35;;;;;;;;;;;;;;;-14.11;84.32;100720.50;5014785;28;19972;-76
2022/12/16 04:24:53;;;;;;;;;;;;;;;-14.15;84.04;100727.50;5012866;28;20024;-75
2022/12/16 04:27:26;;;;;;;;;;;;;;;-14.05;84.94;100730.75;5013010;28;20382;-75
